SBOSBO LPA / GCLP
Speedbird OnlineSpeedbird Online LPA / GCLP

Gran Canaria Airport
08:31 22.8°C

Location Gran Canaria, Spain
Latitude: 27.931900024414062
Longitude: -15.38659954071045
Web Airport Website | Wikipedia
Altitude 24 Meter / 78 Feet
Distance 2,924 KM / 1,817 Miles
from London.
Time Zone UTC +1 hours (Atlantic/Canary)
Codes IATA: LPA
ICAO: GCLP
Currency £1 equals EUR 1.15
Runways
RunwayLength (m)Surface
03L3100Asphalt
03R3100Asphalt
21L3100Asphalt
21R3100Asphalt
Radio
TypeDescriptionFrequency
APPAPP120.9
ATISATIS118.6
GNDGND121.7
TWRTWR118.3
Live ATC
METAR GCLP 060700Z 01020KT 9999 FEW022 23/19 Q1019 NOSIG
TAF TAF GCLP 060200Z 0603/0703 36021KT 9999 FEW020 TX27/0614Z TN22/0606Z TEMPO 0603/0621 01025G35KT
Weather As Of 06 Oct 2022 08:31
Description Few clouds
Wind 37 km/h from North (10°)
Cloud Cover 20%
Precipitation Rain: none, Snow: none
Sunrise 07:56
Sunset 19:42
Lounges AENA Sala Galdos , Depatures Area
Rotations During the last 90 days there were
25 flights from LGW
24 flights to LGW


© 2017-2022 Speedbird Online